createdAt,value
2024-04-19T00:04:01.755Z,1010.88
2024-04-19T00:10:21.709Z,1010.72
2024-04-19T00:16:43.733Z,1010.59
2024-04-19T00:23:03.724Z,1010.48
2024-04-19T00:29:25.688Z,1010.33
2024-04-19T00:35:45.709Z,1010.21
2024-04-19T00:42:07.729Z,1010.16
2024-04-19T00:48:27.867Z,1010.05
2024-04-19T00:54:49.718Z,1009.96
2024-04-19T01:01:09.771Z,1009.76
2024-04-19T01:07:31.704Z,1009.64
2024-04-19T01:13:51.711Z,1009.49
2024-04-19T01:20:13.705Z,1009.45
2024-04-19T01:26:33.681Z,1009.35
2024-04-19T01:32:55.670Z,1009.31
2024-04-19T01:39:15.651Z,1009.26
2024-04-19T01:45:37.655Z,1009.23
2024-04-19T01:51:57.733Z,1009.04
2024-04-19T01:58:19.605Z,1009.15
2024-04-19T02:04:39.635Z,1009.2
2024-04-19T02:11:01.773Z,1009.26
2024-04-19T02:17:21.697Z,1008.98
2024-04-19T02:23:43.608Z,1008.85
2024-04-19T02:30:03.654Z,1008.68
2024-04-19T02:36:25.655Z,1008.57
2024-04-19T02:42:45.745Z,1008.63
2024-04-19T02:49:07.674Z,1008.69
2024-04-19T02:55:27.653Z,1008.52
2024-04-19T03:01:49.623Z,1008.62
2024-04-19T03:08:09.630Z,1008.51
2024-04-19T03:32:50.674Z,1007.77
2024-04-19T03:39:12.644Z,1007.7
2024-04-19T03:45:32.680Z,1007.59
2024-04-19T03:51:54.705Z,1007.41
2024-04-19T03:58:14.627Z,1007.28
2024-04-19T04:04:36.734Z,1007.22
2024-04-19T04:10:56.672Z,1007.25
2024-04-19T04:17:18.608Z,1007.03
2024-04-19T04:23:38.631Z,1006.8
2024-04-19T04:30:00.631Z,1006.77
2024-04-19T04:36:20.622Z,1006.73
2024-04-19T04:42:42.727Z,1006.7
2024-04-19T04:49:02.663Z,1006.61
2024-04-19T04:55:24.652Z,1006.54
2024-04-19T05:01:44.634Z,1006.49
2024-04-19T05:08:06.729Z,1006.29
2024-04-19T05:14:26.631Z,1006.27
2024-04-19T05:20:48.619Z,1006.18
2024-04-19T05:27:08.703Z,1006.19
2024-04-19T05:33:30.678Z,1006.05
2024-04-19T05:39:50.714Z,1005.86
2024-04-19T05:46:12.648Z,1005.74
2024-04-19T05:52:32.617Z,1005.75
2024-04-19T05:58:54.652Z,1005.56
2024-04-19T06:05:14.678Z,1005.53
2024-04-19T06:11:36.656Z,1005.35
2024-04-19T06:17:56.749Z,1005.17
2024-04-19T06:24:18.739Z,1005.09
2024-04-19T06:30:38.706Z,1004.91
2024-04-19T06:37:00.662Z,1004.75
2024-04-19T06:43:20.697Z,1004.59
2024-04-19T06:49:42.704Z,1004.43
2024-04-19T06:56:02.627Z,1004.4
2024-04-19T07:02:24.800Z,1004.23
2024-04-19T07:08:44.615Z,1004.13
2024-04-19T07:15:06.626Z,1003.94
2024-04-19T07:21:31.980Z,1003.96
2024-04-19T07:27:48.731Z,1003.83
2024-04-19T07:34:08.657Z,1003.68
2024-04-19T07:40:30.635Z,1003.54
2024-04-19T07:46:50.639Z,1003.45
2024-04-19T07:53:12.681Z,1003.26
2024-04-19T07:59:32.617Z,1003.25
2024-04-19T08:05:54.612Z,1003.14
2024-04-19T08:12:14.842Z,1003.04
2024-04-19T08:18:36.668Z,1003.05
2024-04-19T08:40:43.659Z,1002.97
2024-04-19T08:47:05.629Z,1002.89
2024-04-19T08:53:25.661Z,1002.79
2024-04-19T08:59:52.618Z,1002.79
2024-04-19T09:06:07.705Z,1002.75
2024-04-19T09:12:29.644Z,1002.69
2024-04-19T09:18:49.668Z,1002.61
2024-04-19T09:25:11.636Z,1002.52
2024-04-19T09:31:31.657Z,1002.47
2024-04-19T09:37:53.763Z,1002.38
2024-04-19T09:44:13.648Z,1002.28
2024-04-19T09:50:35.649Z,1002.17
2024-04-19T09:56:55.668Z,1002.13
2024-04-19T10:03:17.804Z,1001.91
2024-04-19T10:09:37.679Z,1001.93
2024-04-19T10:15:59.811Z,1001.79
2024-04-19T10:22:19.811Z,1001.77
2024-04-19T10:28:41.691Z,1001.63
2024-04-19T10:35:01.657Z,1001.52
2024-04-19T10:41:23.658Z,1001.43
2024-04-19T10:47:43.714Z,1001.11
2024-04-19T10:54:05.666Z,1000.97
2024-04-19T11:00:25.649Z,1000.95
2024-04-19T11:06:47.660Z,1000.96
2024-04-19T11:13:07.697Z,1000.99
2024-04-19T11:19:29.652Z,1000.91
2024-04-19T11:25:49.632Z,1000.78
2024-04-19T11:32:11.681Z,1000.81
2024-04-19T11:38:31.868Z,1000.79
2024-04-19T11:44:53.663Z,1000.87
2024-04-19T11:51:13.640Z,1001.1
2024-04-19T11:57:35.652Z,1001.34
2024-04-19T12:03:55.722Z,1001.4
2024-04-19T12:10:17.620Z,1001.6
2024-04-19T12:16:40.750Z,1001.44
2024-04-19T12:23:03.316Z,1001.23
2024-04-19T12:29:19.712Z,1001.32
2024-04-19T12:35:41.646Z,1001.23
2024-04-19T12:42:01.696Z,1001.13
2024-04-19T12:48:23.726Z,1001.09
2024-04-19T12:54:43.643Z,1001.06
2024-04-19T13:01:05.755Z,1000.9
2024-04-19T13:07:25.639Z,1001.1
2024-04-19T13:24:19.504Z,1001.05
2024-04-19T13:30:36.617Z,1001.14
2024-04-19T13:36:58.774Z,1001.2
2024-04-19T13:43:18.671Z,1001.16
2024-04-19T13:49:40.690Z,1001.45
2024-04-19T13:56:00.622Z,1001.88
2024-04-19T14:02:22.723Z,1002.01
2024-04-19T14:08:42.885Z,1002.16
2024-04-19T14:15:04.646Z,1002.1
2024-04-19T14:21:24.687Z,1001.85
2024-04-19T14:27:46.899Z,1001.63
2024-04-19T14:34:06.683Z,1001.68
2024-04-19T14:40:28.773Z,1001.78
2024-04-19T14:46:48.626Z,1002.14
2024-04-19T14:53:11.101Z,1002.15
2024-04-19T14:59:30.649Z,1002.21
2024-04-19T15:05:52.685Z,1002.26
2024-04-19T15:12:12.738Z,1002.3
2024-04-19T15:18:34.717Z,1002.51
2024-04-19T15:24:54.942Z,1002.53
2024-04-19T15:31:16.695Z,1002.45
2024-04-19T15:37:36.676Z,1002.5
2024-04-19T15:43:58.654Z,1002.64
2024-04-19T15:50:18.619Z,1002.71
2024-04-19T15:56:40.658Z,1002.5
2024-04-19T16:03:00.771Z,1002.4
2024-04-19T16:09:22.954Z,1002.42
2024-04-19T16:15:42.691Z,1002.59
2024-04-19T16:22:04.633Z,1002.42
2024-04-19T16:28:24.639Z,1002.53
2024-04-19T16:34:46.734Z,1002.64
2024-04-19T16:41:06.707Z,1002.89
2024-04-19T16:47:28.868Z,1002.95
2024-04-19T16:53:48.655Z,1002.85
2024-04-19T17:00:10.617Z,1002.94
2024-04-19T17:06:30.734Z,1003.07
2024-04-19T17:12:52.661Z,1003.09
2024-04-19T17:19:12.629Z,1003.1
2024-04-19T17:25:34.670Z,1003.23
2024-04-19T17:31:54.680Z,1003.34
2024-04-19T17:38:16.663Z,1003.39
2024-04-19T18:01:20.222Z,1003.81
2024-04-19T18:07:39.616Z,1003.81
2024-04-19T18:14:01.623Z,1003.95
2024-04-19T18:20:21.622Z,1004.01
2024-04-19T18:26:43.626Z,1004.27
2024-04-19T18:33:03.641Z,1004.33
2024-04-19T18:39:24.717Z,1004.46
2024-04-19T18:45:44.698Z,1004.8
2024-04-19T18:52:06.735Z,1004.69
2024-04-19T18:58:26.642Z,1004.9
2024-04-19T19:04:48.649Z,1005.05
2024-04-19T19:11:08.672Z,1005.13
2024-04-19T19:17:30.695Z,1005.24
2024-04-19T19:23:50.614Z,1005.26
2024-04-19T19:30:12.710Z,1005.43
2024-04-19T19:36:32.650Z,1005.44
2024-04-19T19:42:54.797Z,1005.54
2024-04-19T19:49:14.917Z,1005.57
2024-04-19T19:55:36.646Z,1005.58
2024-04-19T20:01:57.632Z,1005.63
2024-04-19T20:08:19.804Z,1005.7
2024-04-19T20:14:39.636Z,1005.79
2024-04-19T20:21:01.647Z,1005.87
2024-04-19T20:27:21.622Z,1005.85
2024-04-19T20:33:43.689Z,1005.94
2024-04-19T20:40:03.738Z,1005.99
2024-04-19T20:46:25.666Z,1006.23
2024-04-19T20:52:45.661Z,1006.25
2024-04-19T20:59:07.743Z,1006.34
2024-04-19T21:05:27.610Z,1006.48
2024-04-19T21:11:49.624Z,1006.58
2024-04-19T21:18:09.695Z,1006.62
2024-04-19T21:24:31.650Z,1006.7
2024-04-19T21:30:51.718Z,1006.77
2024-04-19T21:37:13.616Z,1006.81
2024-04-19T21:43:33.647Z,1006.81
2024-04-19T21:49:55.629Z,1006.88
2024-04-19T21:56:15.629Z,1006.92
2024-04-19T22:20:31.631Z,1007.14
2024-04-19T22:26:51.606Z,1007.19
2024-04-19T22:33:13.772Z,1007.26
2024-04-19T22:39:33.658Z,1007.31
2024-04-19T22:45:55.734Z,1007.3
2024-04-19T22:52:15.723Z,1007.36
2024-04-19T22:58:37.631Z,1007.37
2024-04-19T23:04:57.667Z,1007.43
2024-04-19T23:11:19.668Z,1007.45
2024-04-19T23:17:39.657Z,1007.56
2024-04-19T23:24:01.625Z,1007.61
2024-04-19T23:30:21.635Z,1007.65
2024-04-19T23:36:43.711Z,1007.78
2024-04-19T23:43:03.733Z,1007.79
2024-04-19T23:49:25.647Z,1007.84
2024-04-19T23:55:45.671Z,1007.91
